Time;durP1;ratioP1;P1;durP2;ratioP2;P2;SDS_P1;SDS_P2;PMS_P1;PMS_P2;Temp;Humidity;BMP_temperature;BMP_pressure;BME280_temperature;BME280_humidity;BME280_pressure;Samples;Min_cycle;Max_cycle;Signal;HPM_P1;HPM_P2
2021/10/13 00:00:12;;;;;;;;;11.67;10.00;;;;;;;;5132925;28;8817;-81
2021/10/13 00:02:37;;;;;;;;;14.25;14.00;;;;;;;;5129794;27;8779;-81
2021/10/13 00:05:03;;;;;;;;;12.00;12.00;;;;;;;;5127087;28;8839;-80
2021/10/13 00:07:28;;;;;;;;;15.00;13.67;;;;;;;;5128835;27;8861;-79
2021/10/13 00:09:54;;;;;;;;;14.67;14.67;;;;;;;;5135036;28;8855;-78
2021/10/13 00:12:19;;;;;;;;;11.00;11.00;;;;;;;;5131819;27;8895;-78
2021/10/13 00:14:44;;;;;;;;;12.33;12.33;;;;;;;;5134973;28;8807;-79
2021/10/13 00:17:10;;;;;;;;;13.33;12.33;;;;;;;;5133954;27;8811;-78
2021/10/13 00:19:35;;;;;;;;;12.33;12.33;;;;;;;;5135841;28;8819;-78
2021/10/13 00:22:00;;;;;;;;;14.33;12.00;;;;;;;;5135912;28;8759;-78
2021/10/13 00:24:26;;;;;;;;;13.00;11.00;;;;;;;;5133471;28;8814;-81
2021/10/13 00:26:51;;;;;;;;;15.67;14.00;;;;;;;;5129112;28;8871;-81
2021/10/13 00:29:16;;;;;;;;;16.00;14.00;;;;;;;;5124590;27;8894;-81
2021/10/13 00:31:41;;;;;;;;;11.33;11.33;;;;;;;;5123016;27;8791;-81
2021/10/13 00:34:06;;;;;;;;;13.33;12.33;;;;;;;;5123595;28;8775;-81
2021/10/13 00:36:32;;;;;;;;;17.33;16.00;;;;;;;;5125358;28;8857;-82
2021/10/13 00:38:57;;;;;;;;;16.33;14.67;;;;;;;;5130481;28;8813;-79
2021/10/13 00:41:22;;;;;;;;;14.00;14.00;;;;;;;;5132352;28;8763;-79
2021/10/13 00:43:48;;;;;;;;;13.00;13.00;;;;;;;;5134695;27;8740;-79
2021/10/13 00:46:13;;;;;;;;;16.00;16.00;;;;;;;;5133434;28;8795;-80
2021/10/13 00:48:38;;;;;;;;;14.67;14.67;;;;;;;;5136223;28;8838;-79
2021/10/13 00:51:03;;;;;;;;;16.33;15.67;;;;;;;;5133998;27;8877;-80
2021/10/13 00:53:29;;;;;;;;;16.33;16.33;;;;;;;;5136239;28;8833;-79
2021/10/13 00:55:56;;;;;;;;;18.00;17.00;;;;;;;;5128872;28;8731;-83
2021/10/13 00:58:21;;;;;;;;;17.75;16.75;;;;;;;;5125007;28;8813;-81
2021/10/13 01:00:48;;;;;;;;;17.00;15.00;;;;;;;;5124540;28;8779;-82
2021/10/13 01:03:19;;;;;;;;;17.50;16.25;;;;;;;;5124117;27;9661;-83
2021/10/13 01:06:00;;;;;;;;;18.25;16.75;;;;;;;;5121529;28;8787;-82
2021/10/13 01:08:31;;;;;;;;;18.50;16.75;;;;;;;;5126532;27;8827;-82
2021/10/13 01:11:15;;;;;;;;;17.25;15.50;;;;;;;;5131352;28;8815;-79
2021/10/13 01:13:48;;;;;;;;;20.75;18.00;;;;;;;;5137431;28;8715;-80
2021/10/13 01:16:17;;;;;;;;;18.75;14.50;;;;;;;;5141382;22;8815;-80
2021/10/13 01:19:00;;;;;;;;;18.50;15.75;;;;;;;;5117293;28;8799;-79
2021/10/13 01:21:49;;;;;;;;;16.25;15.25;;;;;;;;5117000;28;8794;-80
2021/10/13 01:24:33;;;;;;;;;17.50;17.00;;;;;;;;5099389;28;8799;-79
2021/10/13 01:27:17;;;;;;;;;17.00;16.00;;;;;;;;5110103;28;8823;-82
2021/10/13 01:29:43;;;;;;;;;17.00;15.75;;;;;;;;5108766;28;8780;-82
2021/10/13 01:32:16;;;;;;;;;15.33;14.00;;;;;;;;5124364;28;8825;-82
2021/10/13 01:34:44;;;;;;;;;14.25;13.50;;;;;;;;5122505;28;8870;-83
2021/10/13 01:37:14;;;;;;;;;15.75;13.50;;;;;;;;5123862;28;8780;-82
2021/10/13 01:39:41;;;;;;;;;15.25;14.25;;;;;;;;5124636;28;8714;-81
2021/10/13 01:42:07;;;;;;;;;16.50;13.75;;;;;;;;5136006;28;8779;-79
2021/10/13 01:44:33;;;;;;;;;13.00;13.00;;;;;;;;5119394;28;8737;-79
2021/10/13 01:47:00;;;;;;;;;15.67;15.67;;;;;;;;5136399;28;8871;-80
2021/10/13 01:49:26;;;;;;;;;13.50;13.50;;;;;;;;5137219;28;8785;-80
2021/10/13 01:51:52;;;;;;;;;15.25;13.75;;;;;;;;5136970;28;8777;-80
2021/10/13 01:54:18;;;;;;;;;12.25;11.50;;;;;;;;5137046;28;8773;-80
2021/10/13 01:56:43;;;;;;;;;13.00;12.00;;;;;;;;5114911;28;8737;-83
2021/10/13 01:59:11;;;;;;;;;12.67;11.67;;;;;;;;5121776;28;8870;-83
2021/10/13 02:01:37;;;;;;;;;13.50;11.00;;;;;;;;5103429;28;8794;-83
2021/10/13 02:04:04;;;;;;;;;12.00;12.00;;;;;;;;5104261;28;9046;-83
2021/10/13 02:06:31;;;;;;;;;13.00;11.75;;;;;;;;5123809;28;8823;-82
2021/10/13 02:08:57;;;;;;;;;11.25;10.75;;;;;;;;5125102;28;9702;-82
2021/10/13 02:11:23;;;;;;;;;11.00;11.00;;;;;;;;5134227;28;8788;-80
2021/10/13 02:13:49;;;;;;;;;12.25;11.25;;;;;;;;5107070;28;8835;-82
2021/10/13 02:16:14;;;;;;;;;15.67;11.67;;;;;;;;5123646;28;9552;-82
2021/10/13 02:18:40;;;;;;;;;15.00;13.67;;;;;;;;5103592;28;8900;-83
2021/10/13 02:21:06;;;;;;;;;8.33;8.33;;;;;;;;5120880;28;8785;-83
2021/10/13 02:23:32;;;;;;;;;12.33;11.00;;;;;;;;5101693;28;8816;-82
2021/10/13 02:26:01;;;;;;;;;13.75;13.75;;;;;;;;5127668;28;8737;-81
2021/10/13 02:28:34;;;;;;;;;11.00;9.25;;;;;;;;5143029;27;8733;-79
2021/10/13 02:41:19;;;;;;;;;12.75;11.75;;;;;;;;5579599;22;8756;-79
2021/10/13 02:43:45;;;;;;;;;13.00;12.33;;;;;;;;5129558;28;8783;-81
2021/10/13 02:46:14;;;;;;;;;13.67;13.00;;;;;;;;5123302;28;8822;-81
2021/10/13 02:48:41;;;;;;;;;11.25;11.25;;;;;;;;5122834;28;8795;-81
2021/10/13 02:51:07;;;;;;;;;16.25;15.25;;;;;;;;5121130;28;8775;-81
2021/10/13 02:53:39;;;;;;;;;13.33;11.67;;;;;;;;5119324;28;8832;-81
2021/10/13 02:56:04;;;;;;;;;14.25;13.25;;;;;;;;5126643;28;8767;-79
2021/10/13 02:58:38;;;;;;;;;14.00;13.33;;;;;;;;5135066;28;8831;-78
2021/10/13 03:01:04;;;;;;;;;13.50;11.75;;;;;;;;5135680;28;8743;-79
2021/10/13 03:03:40;;;;;;;;;12.33;12.00;;;;;;;;5139000;28;8795;-79
2021/10/13 03:06:07;;;;;;;;;12.00;11.00;;;;;;;;5137053;28;8875;-79
2021/10/13 03:08:34;;;;;;;;;11.50;10.50;;;;;;;;5134094;28;8830;-79
2021/10/13 03:11:01;;;;;;;;;10.50;10.50;;;;;;;;5133423;28;8795;-78
2021/10/13 03:13:30;;;;;;;;;11.75;11.75;;;;;;;;5124605;28;8802;-80
2021/10/13 03:15:56;;;;;;;;;10.25;10.25;;;;;;;;5123583;28;8771;-82
2021/10/13 03:18:21;;;;;;;;;9.67;9.33;;;;;;;;5119639;28;8791;-81
2021/10/13 03:20:49;;;;;;;;;10.50;10.25;;;;;;;;5120115;28;8826;-81
2021/10/13 03:23:16;;;;;;;;;10.00;9.00;;;;;;;;5120840;28;8773;-81
2021/10/13 03:25:42;;;;;;;;;10.75;8.00;;;;;;;;5123021;28;8775;-79
2021/10/13 03:28:07;;;;;;;;;12.33;12.33;;;;;;;;5135186;28;8818;-79
2021/10/13 03:30:32;;;;;;;;;14.00;13.33;;;;;;;;5148572;27;8905;-78
2021/10/13 03:32:57;;;;;;;;;10.33;10.33;;;;;;;;5157685;27;9621;-78
2021/10/13 03:35:24;;;;;;;;;13.33;12.33;;;;;;;;5154947;27;9742;-78
2021/10/13 03:37:49;;;;;;;;;11.25;11.00;;;;;;;;5156604;27;8817;-78
2021/10/13 03:40:16;;;;;;;;;11.00;11.00;;;;;;;;5154409;27;8812;-78
2021/10/13 03:42:41;;;;;;;;;9.25;9.25;;;;;;;;5142005;27;8797;-80
2021/10/13 03:45:06;;;;;;;;;10.67;10.67;;;;;;;;5143066;27;8789;-81
2021/10/13 03:47:32;;;;;;;;;10.33;10.00;;;;;;;;5142685;27;8835;-80
2021/10/13 03:49:57;;;;;;;;;8.67;7.67;;;;;;;;5144733;27;8857;-80
2021/10/13 03:52:22;;;;;;;;;12.00;10.33;;;;;;;;5144700;27;8797;-81
2021/10/13 03:54:47;;;;;;;;;13.00;11.00;;;;;;;;5152596;27;8809;-79
2021/10/13 03:57:12;;;;;;;;;12.33;12.00;;;;;;;;5158152;27;8808;-79
2021/10/13 03:59:38;;;;;;;;;13.67;12.00;;;;;;;;5158011;27;8824;-78
2021/10/13 04:02:03;;;;;;;;;10.33;10.33;;;;;;;;5157326;27;8792;-79
2021/10/13 04:04:28;;;;;;;;;10.00;10.00;;;;;;;;5154965;27;8792;-78
2021/10/13 04:06:53;;;;;;;;;12.67;11.00;;;;;;;;5155303;27;9609;-80
2021/10/13 04:09:19;;;;;;;;;13.00;11.00;;;;;;;;5150282;27;8876;-79
2021/10/13 04:11:44;;;;;;;;;11.00;11.00;;;;;;;;5140768;27;8784;-83
2021/10/13 04:14:09;;;;;;;;;10.00;10.00;;;;;;;;5139468;27;8788;-83
2021/10/13 04:16:34;;;;;;;;;13.00;10.00;;;;;;;;5141341;27;8784;-80
2021/10/13 04:18:59;;;;;;;;;11.00;10.33;;;;;;;;5140423;27;8800;-81
2021/10/13 04:21:25;;;;;;;;;9.67;9.33;;;;;;;;5140225;27;8891;-81
2021/10/13 04:23:50;;;;;;;;;15.00;15.00;;;;;;;;5138700;27;9648;-79
2021/10/13 04:26:15;;;;;;;;;8.33;8.00;;;;;;;;5140269;27;8789;-78
2021/10/13 04:28:40;;;;;;;;;11.00;10.33;;;;;;;;5140291;27;8946;-78
2021/10/13 04:31:05;;;;;;;;;12.00;11.67;;;;;;;;5124001;27;8775;-78
2021/10/13 04:33:31;;;;;;;;;10.00;10.00;;;;;;;;5118558;28;8786;-78
2021/10/13 04:35:56;;;;;;;;;27.33;23.33;;;;;;;;5118433;28;8799;-78
2021/10/13 04:38:21;;;;;;;;;33.00;29.67;;;;;;;;5119079;27;8864;-78
2021/10/13 04:40:46;;;;;;;;;38.67;30.67;;;;;;;;5118404;27;8815;-80
2021/10/13 04:43:11;;;;;;;;;32.75;29.75;;;;;;;;5134246;27;8831;-80
2021/10/13 04:45:37;;;;;;;;;21.33;19.00;;;;;;;;5118245;27;8891;-80
2021/10/13 04:48:02;;;;;;;;;23.00;21.33;;;;;;;;5116863;28;8846;-81
2021/10/13 04:50:27;;;;;;;;;13.33;13.33;;;;;;;;5117975;27;8783;-80
2021/10/13 04:52:53;;;;;;;;;23.67;21.00;;;;;;;;5118921;28;8815;-80
2021/10/13 04:55:18;;;;;;;;;18.67;16.00;;;;;;;;5116936;28;8807;-78
2021/10/13 04:57:43;;;;;;;;;20.67;17.00;;;;;;;;5118208;28;9578;-78
2021/10/13 05:00:09;;;;;;;;;17.67;15.67;;;;;;;;5118070;28;8775;-78
2021/10/13 05:02:34;;;;;;;;;19.00;17.33;;;;;;;;5122630;27;8811;-80
2021/10/13 05:04:59;;;;;;;;;22.67;21.00;;;;;;;;5119441;27;8829;-79
2021/10/13 05:07:24;;;;;;;;;20.67;18.00;;;;;;;;5117664;27;8838;-78
2021/10/13 05:09:50;;;;;;;;;18.00;15.33;;;;;;;;5117744;27;8839;-79
2021/10/13 05:12:15;;;;;;;;;24.33;19.67;;;;;;;;5118489;27;8880;-82
2021/10/13 05:14:40;;;;;;;;;25.00;21.67;;;;;;;;5122381;27;8879;-85
2021/10/13 05:17:05;;;;;;;;;22.00;22.00;;;;;;;;5124147;27;8919;-83
2021/10/13 05:19:31;;;;;;;;;31.75;27.75;;;;;;;;5118775;27;8829;-83
2021/10/13 05:21:56;;;;;;;;;23.67;20.67;;;;;;;;5117342;27;9598;-82
2021/10/13 05:24:21;;;;;;;;;15.00;14.67;;;;;;;;5116143;27;8815;-79
2021/10/13 05:26:46;;;;;;;;;17.67;17.67;;;;;;;;5117630;27;8831;-79
2021/10/13 05:29:12;;;;;;;;;18.33;16.00;;;;;;;;5116427;28;8829;-77
2021/10/13 05:31:37;;;;;;;;;12.00;10.67;;;;;;;;5137172;27;8827;-77
2021/10/13 05:34:02;;;;;;;;;17.33;16.00;;;;;;;;5138177;27;8849;-78
2021/10/13 05:36:27;;;;;;;;;19.67;19.00;;;;;;;;5137794;27;8900;-78
2021/10/13 05:38:53;;;;;;;;;17.67;17.67;;;;;;;;5138193;27;8792;-78
2021/10/13 05:41:18;;;;;;;;;18.00;16.00;;;;;;;;5137827;27;9672;-78
2021/10/13 05:43:43;;;;;;;;;16.67;15.67;;;;;;;;5136711;27;8831;-78
2021/10/13 05:46:08;;;;;;;;;13.33;13.33;;;;;;;;5137814;27;8795;-78
2021/10/13 05:48:33;;;;;;;;;17.00;15.33;;;;;;;;5137893;27;8804;-83
2021/10/13 05:50:59;;;;;;;;;15.33;14.00;;;;;;;;5136992;27;8780;-82
2021/10/13 05:53:25;;;;;;;;;12.67;11.33;;;;;;;;5137670;27;8802;-83
2021/10/13 05:55:50;;;;;;;;;12.00;12.00;;;;;;;;5136340;27;8848;-82
2021/10/13 05:58:17;;;;;;;;;11.00;10.33;;;;;;;;5137787;27;8841;-82
2021/10/13 06:00:44;;;;;;;;;14.00;13.00;;;;;;;;5137766;27;8818;-81
2021/10/13 06:03:10;;;;;;;;;13.67;13.33;;;;;;;;5137703;27;8962;-78
2021/10/13 06:05:35;;;;;;;;;16.67;13.33;;;;;;;;5136068;27;9119;-78
2021/10/13 06:08:00;;;;;;;;;14.67;13.00;;;;;;;;5137615;27;8905;-78
2021/10/13 06:10:25;;;;;;;;;25.67;25.00;;;;;;;;5137778;27;8898;-77
2021/10/13 06:12:51;;;;;;;;;24.00;22.33;;;;;;;;5136392;27;9622;-77
2021/10/13 06:15:19;;;;;;;;;20.00;19.67;;;;;;;;5137689;27;8789;-78
2021/10/13 06:17:44;;;;;;;;;28.00;25.00;;;;;;;;5136167;27;8769;-77
2021/10/13 06:20:09;;;;;;;;;26.75;23.75;;;;;;;;5135982;27;10225;-77
2021/10/13 06:22:35;;;;;;;;;25.67;22.33;;;;;;;;5135750;27;8835;-77
2021/10/13 06:25:00;;;;;;;;;27.00;24.00;;;;;;;;5135898;27;8804;-77
2021/10/13 06:27:26;;;;;;;;;30.50;28.50;;;;;;;;5137238;27;8804;-81
2021/10/13 06:29:51;;;;;;;;;28.33;25.67;;;;;;;;5131019;27;8811;-80
2021/10/13 06:32:16;;;;;;;;;33.67;27.67;;;;;;;;5117733;27;8829;-81
2021/10/13 06:34:53;;;;;;;;;29.00;26.50;;;;;;;;5116636;28;8807;-81
2021/10/13 06:37:19;;;;;;;;;29.00;28.33;;;;;;;;5115678;28;8795;-81
2021/10/13 06:39:44;;;;;;;;;32.50;30.75;;;;;;;;5124102;27;9662;-78
2021/10/13 06:42:10;;;;;;;;;32.00;31.75;;;;;;;;5118496;28;8830;-81
2021/10/13 06:44:35;;;;;;;;;34.75;29.75;;;;;;;;5126499;28;8798;-83
2021/10/13 06:47:03;;;;;;;;;31.00;29.00;;;;;;;;5121567;28;8907;-81
2021/10/13 06:49:28;;;;;;;;;35.50;32.00;;;;;;;;5121047;28;8803;-81
2021/10/13 06:51:54;;;;;;;;;41.50;32.50;;;;;;;;5121432;28;9900;-81
2021/10/13 06:54:22;;;;;;;;;38.25;33.25;;;;;;;;5121679;28;8795;-82
2021/10/13 06:56:47;;;;;;;;;38.25;34.50;;;;;;;;5120228;28;8884;-79
2021/10/13 06:59:13;;;;;;;;;35.00;31.50;;;;;;;;5115076;28;10093;-79
2021/10/13 07:01:47;;;;;;;;;33.75;29.25;;;;;;;;5117462;27;8872;-82
2021/10/13 07:04:15;;;;;;;;;34.00;31.50;;;;;;;;5122852;28;9708;-83
2021/10/13 07:06:41;;;;;;;;;36.75;34.25;;;;;;;;5123424;28;9946;-83
2021/10/13 07:09:09;;;;;;;;;34.50;31.75;;;;;;;;5121995;28;10065;-80
2021/10/13 07:11:35;;;;;;;;;36.25;31.50;;;;;;;;5121436;28;8795;-83
2021/10/13 07:14:03;;;;;;;;;35.50;32.50;;;;;;;;5120999;28;9774;-82
2021/10/13 07:16:28;;;;;;;;;28.00;25.75;;;;;;;;5119086;28;8811;-78
2021/10/13 07:18:53;;;;;;;;;29.00;26.50;;;;;;;;5119788;27;9912;-77
2021/10/13 07:21:37;;;;;;;;;27.33;26.33;;;;;;;;5119361;28;8791;-80
2021/10/13 07:24:02;;;;;;;;;20.67;20.67;;;;;;;;5118047;28;8783;-79
2021/10/13 07:26:27;;;;;;;;;29.00;23.33;;;;;;;;5117330;27;9415;-82
2021/10/13 07:28:53;;;;;;;;;26.00;25.33;;;;;;;;5118930;28;8827;-79
2021/10/13 07:31:18;;;;;;;;;27.00;25.33;;;;;;;;5134872;27;8820;-82
2021/10/13 07:33:44;;;;;;;;;27.67;25.67;;;;;;;;5140028;27;8793;-83
2021/10/13 07:36:10;;;;;;;;;28.00;26.67;;;;;;;;5138287;27;8816;-79
2021/10/13 07:38:36;;;;;;;;;26.67;24.33;;;;;;;;5138551;27;8804;-82
2021/10/13 07:41:02;;;;;;;;;30.67;26.33;;;;;;;;5139867;27;9437;-82
2021/10/13 07:43:31;;;;;;;;;27.67;25.00;;;;;;;;5139309;27;8849;-80
2021/10/13 07:45:56;;;;;;;;;30.00;26.00;;;;;;;;5138487;27;8901;-80
2021/10/13 07:48:24;;;;;;;;;27.33;26.67;;;;;;;;5139820;27;9348;-82
2021/10/13 07:50:50;;;;;;;;;31.25;30.00;;;;;;;;5137878;27;8804;-78
2021/10/13 07:53:15;;;;;;;;;29.33;27.67;;;;;;;;5139606;27;9725;-79
2021/10/13 07:55:40;;;;;;;;;26.00;26.00;;;;;;;;5138353;27;8832;-77
2021/10/13 07:58:06;;;;;;;;;27.33;26.33;;;;;;;;5138269;27;8804;-78
2021/10/13 08:00:34;;;;;;;;;23.00;21.67;;;;;;;;5138053;27;8815;-77
2021/10/13 08:02:59;;;;;;;;;22.33;21.67;;;;;;;;5137739;27;8785;-78
2021/10/13 08:05:28;;;;;;;;;25.67;23.67;;;;;;;;5139191;27;9248;-79
2021/10/13 08:07:54;;;;;;;;;30.33;25.67;;;;;;;;5137535;27;8816;-80
2021/10/13 08:10:23;;;;;;;;;29.33;25.00;;;;;;;;5137927;27;9279;-81
2021/10/13 08:12:48;;;;;;;;;25.00;24.00;;;;;;;;5138029;27;8792;-80
2021/10/13 08:15:15;;;;;;;;;28.67;27.00;;;;;;;;5140952;27;9403;-81
2021/10/13 08:17:41;;;;;;;;;32.33;28.67;;;;;;;;5142995;27;8819;-81
2021/10/13 08:20:10;;;;;;;;;31.33;30.33;;;;;;;;5139934;27;10388;-77
2021/10/13 08:22:36;;;;;;;;;29.67;27.67;;;;;;;;5137567;27;9757;-76
2021/10/13 08:25:01;;;;;;;;;31.00;25.00;;;;;;;;5139137;27;9180;-75
2021/10/13 08:27:27;;;;;;;;;26.00;24.33;;;;;;;;5139047;27;11595;-77
2021/10/13 08:29:52;;;;;;;;;23.67;23.00;;;;;;;;5134102;27;8810;-76
2021/10/13 08:32:17;;;;;;;;;44.50;37.25;;;;;;;;5117160;28;8815;-78
2021/10/13 08:34:43;;;;;;;;;38.00;32.67;;;;;;;;5119615;28;8826;-78
2021/10/13 08:37:08;;;;;;;;;38.00;31.00;;;;;;;;5116895;28;8964;-76
2021/10/13 08:39:42;;;;;;;;;34.33;31.00;;;;;;;;5117167;28;8803;-79
2021/10/13 08:42:08;;;;;;;;;37.33;30.00;;;;;;;;5117261;28;8846;-79
2021/10/13 08:44:38;;;;;;;;;35.00;28.00;;;;;;;;5116635;28;9225;-79
2021/10/13 08:47:08;;;;;;;;;22.33;20.67;;;;;;;;5116621;28;8833;-79
2021/10/13 08:49:36;;;;;;;;;22.00;21.00;;;;;;;;5116372;28;8847;-78
2021/10/13 08:52:06;;;;;;;;;17.67;17.67;;;;;;;;5117969;28;9012;-80
2021/10/13 08:54:32;;;;;;;;;17.67;16.67;;;;;;;;5116689;28;9064;-80
2021/10/13 08:56:57;;;;;;;;;22.33;18.00;;;;;;;;5116620;28;8985;-80
2021/10/13 08:59:40;;;;;;;;;16.33;16.33;;;;;;;;5115080;28;8856;-79
2021/10/13 09:02:06;;;;;;;;;16.00;16.00;;;;;;;;5116783;28;8827;-77
2021/10/13 09:04:31;;;;;;;;;15.00;15.00;;;;;;;;5116318;28;8978;-79
2021/10/13 09:07:02;;;;;;;;;20.33;16.67;;;;;;;;5117452;28;8853;-78
2021/10/13 09:09:27;;;;;;;;;18.00;17.25;;;;;;;;5116424;28;8798;-75
2021/10/13 09:11:52;;;;;;;;;17.00;16.67;;;;;;;;5117767;28;8876;-76
2021/10/13 09:14:19;;;;;;;;;20.00;15.00;;;;;;;;5116495;28;8795;-76
2021/10/13 09:17:00;;;;;;;;;20.25;18.50;;;;;;;;5116377;28;8813;-76
2021/10/13 09:19:27;;;;;;;;;17.33;16.67;;;;;;;;5117681;28;8817;-76
2021/10/13 09:21:54;;;;;;;;;21.33;20.33;;;;;;;;5115928;28;9038;-77
2021/10/13 09:24:20;;;;;;;;;17.33;16.00;;;;;;;;5117046;28;9208;-76
2021/10/13 09:26:45;;;;;;;;;15.33;13.67;;;;;;;;5117154;28;8985;-76
2021/10/13 09:29:10;;;;;;;;;13.00;12.67;;;;;;;;5117014;28;9561;-78
2021/10/13 09:31:36;;;;;;;;;12.00;12.00;;;;;;;;5118392;27;8861;-78
2021/10/13 09:34:03;;;;;;;;;13.67;12.67;;;;;;;;5112987;28;8823;-79
2021/10/13 09:36:39;;;;;;;;;12.25;12.00;;;;;;;;5117128;28;8771;-79
2021/10/13 09:39:05;;;;;;;;;13.75;11.25;;;;;;;;5117316;28;8767;-79
2021/10/13 09:41:30;;;;;;;;;14.25;13.50;;;;;;;;5115754;28;9228;-79
2021/10/13 09:44:11;;;;;;;;;18.67;16.67;;;;;;;;5115418;28;8913;-79
2021/10/13 09:46:36;;;;;;;;;21.25;16.75;;;;;;;;5115832;28;8822;-76
2021/10/13 09:49:02;;;;;;;;;23.00;19.33;;;;;;;;5115796;28;8799;-76
2021/10/13 09:51:35;;;;;;;;;59.25;45.00;;;;;;;;5115472;28;8807;-75
2021/10/13 09:54:06;;;;;;;;;75.50;61.75;;;;;;;;5117640;28;8799;-76
2021/10/13 09:56:36;;;;;;;;;60.75;48.25;;;;;;;;5117337;28;11243;-81
2021/10/13 09:59:12;;;;;;;;;17.25;14.75;;;;;;;;5116911;28;10462;-81
2021/10/13 10:01:48;;;;;;;;;19.50;16.75;;;;;;;;5117433;27;8823;-81
2021/10/13 10:04:19;;;;;;;;;9.00;6.25;;;;;;;;5117981;28;8804;-82
2021/10/13 10:06:48;;;;;;;;;6.75;6.75;;;;;;;;5117799;28;8801;-83
2021/10/13 10:09:18;;;;;;;;;5.50;5.50;;;;;;;;5118275;28;8723;-79
2021/10/13 10:11:43;;;;;;;;;8.75;8.75;;;;;;;;5117079;27;8728;-77
2021/10/13 10:14:27;;;;;;;;;7.00;7.00;;;;;;;;5117298;28;8903;-78
2021/10/13 10:16:52;;;;;;;;;13.50;9.75;;;;;;;;5115861;28;8838;-78
2021/10/13 10:19:19;;;;;;;;;6.67;5.67;;;;;;;;5117020;28;8795;-80
2021/10/13 10:21:51;;;;;;;;;5.50;4.25;;;;;;;;5117451;28;8856;-79
2021/10/13 10:24:24;;;;;;;;;5.00;4.00;;;;;;;;5115414;28;8803;-80
2021/10/13 10:26:50;;;;;;;;;3.00;3.00;;;;;;;;5116837;28;8759;-80
2021/10/13 10:29:16;;;;;;;;;2.00;2.00;;;;;;;;5116848;27;8779;-80
2021/10/13 10:31:54;;;;;;;;;2.33;2.33;;;;;;;;5137000;27;8906;-80
2021/10/13 10:34:19;;;;;;;;;3.00;1.50;;;;;;;;5136095;27;8784;-78
2021/10/13 10:36:44;;;;;;;;;5.67;3.33;;;;;;;;5137191;27;8793;-77
2021/10/13 10:39:11;;;;;;;;;23.00;18.67;;;;;;;;5140809;27;8815;-78
2021/10/13 10:41:55;;;;;;;;;33.33;27.67;;;;;;;;5139308;27;8828;-82
2021/10/13 10:44:26;;;;;;;;;28.00;25.00;;;;;;;;5140849;27;9007;-81
2021/10/13 10:47:01;;;;;;;;;16.50;12.50;;;;;;;;5140611;27;8811;-82
2021/10/13 10:49:55;;;;;;;;;7.75;7.00;;;;;;;;5140891;27;8795;-85
2021/10/13 10:52:21;;;;;;;;;4.75;3.75;;;;;;;;5140567;27;8764;-84
2021/10/13 10:54:55;;;;;;;;;8.75;8.00;;;;;;;;5140714;27;8760;-84
2021/10/13 10:57:32;;;;;;;;;29.67;23.67;;;;;;;;5140694;27;8892;-81
2021/10/13 10:59:58;;;;;;;;;7.25;6.50;;;;;;;;5140682;27;8958;-79
2021/10/13 11:02:24;;;;;;;;;3.67;3.67;;;;;;;;5140695;27;8820;-79
2021/10/13 11:05:05;;;;;;;;;5.00;5.00;;;;;;;;5140612;27;8784;-80
2021/10/13 11:07:31;;;;;;;;;6.00;4.00;;;;;;;;5140302;27;9709;-78
2021/10/13 11:09:59;;;;;;;;;3.00;3.00;;;;;;;;5140449;27;8784;-78
2021/10/13 11:12:26;;;;;;;;;4.25;3.00;;;;;;;;5139165;27;8804;-78
2021/10/13 11:15:06;;;;;;;;;5.00;4.00;;;;;;;;5140489;27;8773;-78
2021/10/13 11:17:32;;;;;;;;;5.75;4.25;;;;;;;;5138913;27;8880;-77
2021/10/13 11:20:05;;;;;;;;;8.00;7.00;;;;;;;;5140071;27;8845;-79
2021/10/13 11:22:30;;;;;;;;;66.00;50.00;;;;;;;;5138616;27;8834;-85
2021/10/13 11:24:55;;;;;;;;;15.67;13.67;;;;;;;;5140070;27;10314;-82
2021/10/13 11:27:24;;;;;;;;;12.00;11.00;;;;;;;;5140036;27;8832;-81
2021/10/13 11:29:50;;;;;;;;;7.00;6.25;;;;;;;;5136042;27;8802;-84
2021/10/13 11:32:16;;;;;;;;;3.50;3.50;;;;;;;;5120912;28;8775;-83
2021/10/13 11:34:55;;;;;;;;;2.50;2.00;;;;;;;;5123706;28;9693;-79
2021/10/13 11:37:24;;;;;;;;;1.00;1.00;;;;;;;;5120312;27;8791;-80
2021/10/13 11:39:49;;;;;;;;;2.00;1.75;;;;;;;;5118514;28;8779;-78
2021/10/13 11:42:16;;;;;;;;;2.67;2.00;;;;;;;;5119017;28;8896;-80
2021/10/13 11:44:45;;;;;;;;;0.50;0.50;;;;;;;;5120185;28;8811;-78
2021/10/13 11:47:11;;;;;;;;;1.50;0.75;;;;;;;;5118614;28;8977;-77
2021/10/13 11:49:52;;;;;;;;;0.67;0.67;;;;;;;;5118578;28;8894;-78
2021/10/13 11:52:18;;;;;;;;;2.25;1.50;;;;;;;;5118204;28;9469;-78
2021/10/13 11:54:43;;;;;;;;;1.00;1.00;;;;;;;;5119488;28;8783;-77
2021/10/13 11:57:08;;;;;;;;;1.33;1.00;;;;;;;;5119477;28;8839;-81
2021/10/13 11:59:34;;;;;;;;;3.67;2.00;;;;;;;;5123762;27;8805;-83
2021/10/13 12:02:20;;;;;;;;;2.00;2.00;;;;;;;;5123099;27;8831;-82
2021/10/13 12:04:50;;;;;;;;;1.25;1.25;;;;;;;;5120483;27;8797;-81
2021/10/13 12:07:16;;;;;;;;;2.00;0.75;;;;;;;;5120795;27;8961;-82
2021/10/13 12:09:45;;;;;;;;;18.67;17.67;;;;;;;;5119827;27;8882;-78
2021/10/13 12:12:13;;;;;;;;;2.25;2.00;;;;;;;;5118858;27;11494;-78
2021/10/13 12:14:38;;;;;;;;;2.00;2.00;;;;;;;;5119121;27;8817;-80
2021/10/13 12:17:03;;;;;;;;;2.33;2.00;;;;;;;;5119287;28;8791;-79
2021/10/13 12:19:40;;;;;;;;;2.00;2.00;;;;;;;;5117598;28;8807;-80
2021/10/13 12:22:06;;;;;;;;;0.25;0.25;;;;;;;;5119585;27;8779;-81
2021/10/13 12:24:33;;;;;;;;;2.00;2.00;;;;;;;;5117449;28;8798;-79
2021/10/13 12:26:58;;;;;;;;;2.25;2.00;;;;;;;;5119249;28;8732;-79
2021/10/13 12:29:23;;;;;;;;;3.33;3.00;;;;;;;;5119601;27;9542;-79
2021/10/13 12:31:49;;;;;;;;;0.67;0.67;;;;;;;;5138583;27;8812;-79
2021/10/13 12:34:16;;;;;;;;;1.33;0.67;;;;;;;;5139996;27;8880;-81
2021/10/13 12:36:51;;;;;;;;;0.50;0.50;;;;;;;;5139197;27;9743;-81
2021/10/13 12:39:20;;;;;;;;;3.00;0.75;;;;;;;;5139349;27;8823;-80
2021/10/13 12:41:47;;;;;;;;;5.75;5.50;;;;;;;;5137638;27;8812;-81
2021/10/13 12:44:13;;;;;;;;;8.75;5.25;;;;;;;;5138806;27;8772;-80
2021/10/13 12:46:38;;;;;;;;;6.33;5.00;;;;;;;;5139312;27;8814;-79
2021/10/13 12:49:11;;;;;;;;;6.33;4.67;;;;;;;;5139059;27;9567;-80
2021/10/13 12:51:58;;;;;;;;;0.25;0.00;;;;;;;;5138375;27;8796;-80
2021/10/13 12:54:24;;;;;;;;;0.00;0.00;;;;;;;;5138896;27;8780;-81
2021/10/13 12:56:49;;;;;;;;;3.00;3.00;;;;;;;;5137514;27;8793;-80
2021/10/13 12:59:15;;;;;;;;;1.00;1.00;;;;;;;;5138458;27;10627;-80
2021/10/13 13:01:41;;;;;;;;;18.25;17.50;;;;;;;;5138329;27;8797;-80
2021/10/13 13:04:06;;;;;;;;;2.00;1.00;;;;;;;;5138799;27;8876;-80
2021/10/13 13:06:31;;;;;;;;;6.67;3.00;;;;;;;;5138578;27;8788;-79
2021/10/13 13:08:58;;;;;;;;;2.67;2.33;;;;;;;;5138609;27;8832;-78
2021/10/13 13:11:23;;;;;;;;;1.00;1.00;;;;;;;;5138669;27;8779;-80
2021/10/13 13:13:48;;;;;;;;;2.00;1.00;;;;;;;;5138759;27;8797;-80
2021/10/13 13:16:13;;;;;;;;;0.00;0.00;;;;;;;;5137241;27;8800;-79
2021/10/13 13:18:41;;;;;;;;;3.00;1.00;;;;;;;;5138598;27;8804;-79
2021/10/13 13:21:06;;;;;;;;;2.00;1.00;;;;;;;;5137659;27;8815;-79
2021/10/13 13:23:32;;;;;;;;;1.67;1.00;;;;;;;;5136819;27;8909;-80
2021/10/13 13:25:57;;;;;;;;;2.00;2.00;;;;;;;;5138697;27;8847;-80
2021/10/13 13:28:22;;;;;;;;;0.33;0.33;;;;;;;;5138351;27;9491;-78
2021/10/13 13:30:47;;;;;;;;;1.00;1.00;;;;;;;;5125408;27;8847;-78
2021/10/13 13:33:13;;;;;;;;;0.33;0.33;;;;;;;;5118173;28;8834;-82
2021/10/13 13:35:38;;;;;;;;;1.00;0.00;;;;;;;;5117743;28;8827;-80
2021/10/13 13:38:04;;;;;;;;;1.00;1.00;;;;;;;;5117461;28;8810;-80
2021/10/13 13:40:29;;;;;;;;;0.00;0.00;;;;;;;;5117659;27;8799;-80
2021/10/13 13:42:54;;;;;;;;;0.00;0.00;;;;;;;;5116142;28;8803;-80
2021/10/13 13:45:19;;;;;;;;;1.00;1.00;;;;;;;;5117572;28;8826;-80
2021/10/13 13:47:45;;;;;;;;;3.00;2.67;;;;;;;;5117500;28;8802;-78
2021/10/13 13:50:10;;;;;;;;;1.00;0.67;;;;;;;;5117175;28;9577;-79
2021/10/13 13:52:35;;;;;;;;;1.00;1.00;;;;;;;;5117413;28;8803;-80
2021/10/13 13:55:00;;;;;;;;;0.67;0.67;;;;;;;;5117513;28;8798;-80
2021/10/13 13:57:26;;;;;;;;;0.00;0.00;;;;;;;;5116311;28;10017;-80
2021/10/13 13:59:51;;;;;;;;;3.33;3.33;;;;;;;;5118124;28;8893;-80
2021/10/13 14:02:16;;;;;;;;;0.00;0.00;;;;;;;;5118620;28;8795;-76
2021/10/13 14:04:42;;;;;;;;;5.00;2.33;;;;;;;;5117664;28;8810;-80
2021/10/13 14:07:07;;;;;;;;;1.33;1.33;;;;;;;;5117244;28;8835;-80
2021/10/13 14:09:33;;;;;;;;;0.33;0.33;;;;;;;;5117079;28;8809;-79
2021/10/13 14:11:58;;;;;;;;;2.67;0.67;;;;;;;;5116918;27;8814;-81
2021/10/13 14:14:23;;;;;;;;;1.00;1.00;;;;;;;;5117590;28;8799;-84
2021/10/13 14:16:49;;;;;;;;;1.00;1.00;;;;;;;;5114992;28;8819;-84
2021/10/13 14:19:14;;;;;;;;;2.00;1.00;;;;;;;;5118287;28;8898;-84
2021/10/13 14:21:39;;;;;;;;;0.00;0.00;;;;;;;;5117446;28;8799;-84
2021/10/13 14:24:05;;;;;;;;;0.00;0.00;;;;;;;;5116795;28;8783;-84
2021/10/13 14:26:30;;;;;;;;;4.67;2.33;;;;;;;;5116844;28;8810;-79
2021/10/13 14:28:55;;;;;;;;;0.67;0.67;;;;;;;;5116852;28;8822;-79
2021/10/13 14:31:20;;;;;;;;;7.00;4.33;;;;;;;;5118584;27;8825;-79
2021/10/13 14:33:46;;;;;;;;;20.00;16.00;;;;;;;;5108912;27;8819;-80
2021/10/13 14:36:11;;;;;;;;;43.33;36.33;;;;;;;;5104606;28;8834;-79
2021/10/13 14:38:36;;;;;;;;;11.33;9.67;;;;;;;;5108880;28;8807;-78
2021/10/13 14:41:02;;;;;;;;;4.00;2.33;;;;;;;;5103021;28;8869;-80
2021/10/13 14:43:33;;;;;;;;;11.33;11.33;;;;;;;;5114625;28;8811;-83
2021/10/13 14:46:27;;;;;;;;;6.00;6.00;;;;;;;;5111018;28;8782;-81
2021/10/13 14:48:55;;;;;;;;;1.00;0.75;;;;;;;;5120024;28;9751;-82